sensor_id;sensor_type;location;lat;lon;timestamp;pressure;altitude;pressure_sealevel;temperature;humidity
63654;BME280;49809;47.418;19.080;2023-04-04T00:01:19;100724.91;;;1.89;49.87
63654;BME280;49809;47.418;19.080;2023-04-04T00:04:29;100722.94;;;1.76;49.96
63654;BME280;49809;47.418;19.080;2023-04-04T00:07:35;100724.66;;;1.84;49.75
63654;BME280;49809;47.418;19.080;2023-04-04T00:10:59;100725.81;;;1.81;49.77
63654;BME280;49809;47.418;19.080;2023-04-04T00:14:07;100731.66;;;1.83;49.63
63654;BME280;49809;47.418;19.080;2023-04-04T00:17:20;100732.56;;;1.75;49.62
63654;BME280;49809;47.418;19.080;2023-04-04T00:20:43;100731.41;;;1.78;50.43
63654;BME280;49809;47.418;19.080;2023-04-04T00:23:47;100734.09;;;1.70;50.73
63654;BME280;49809;47.418;19.080;2023-04-04T00:26:54;100737.34;;;1.72;50.21
63654;BME280;49809;47.418;19.080;2023-04-04T00:30:01;100748.16;;;1.69;50.92
63654;BME280;49809;47.418;19.080;2023-04-04T00:33:08;100738.06;;;1.66;51.70
63654;BME280;49809;47.418;19.080;2023-04-04T00:36:15;100741.66;;;1.65;51.03
63654;BME280;49809;47.418;19.080;2023-04-04T00:39:47;100743.94;;;1.68;51.14
63654;BME280;49809;47.418;19.080;2023-04-04T00:42:53;100741.41;;;1.60;51.53
63654;BME280;49809;47.418;19.080;2023-04-04T00:46:01;100734.31;;;1.68;51.54
63654;BME280;49809;47.418;19.080;2023-04-04T00:49:05;100737.38;;;1.57;52.08
63654;BME280;49809;47.418;19.080;2023-04-04T00:52:08;100728.81;;;1.63;51.35
63654;BME280;49809;47.418;19.080;2023-04-04T00:55:22;100722.41;;;1.66;51.27
63654;BME280;49809;47.418;19.080;2023-04-04T00:58:28;100714.69;;;1.58;51.89
63654;BME280;49809;47.418;19.080;2023-04-04T01:01:32;100717.47;;;1.56;52.48
63654;BME280;49809;47.418;19.080;2023-04-04T01:04:43;100707.47;;;1.60;52.17
63654;BME280;49809;47.418;19.080;2023-04-04T01:07:50;100699.41;;;1.55;52.42
63654;BME280;49809;47.418;19.080;2023-04-04T01:10:56;100693.44;;;1.61;52.23
63654;BME280;49809;47.418;19.080;2023-04-04T01:14:28;100685.63;;;1.61;52.20
63654;BME280;49809;47.418;19.080;2023-04-04T01:17:32;100676.53;;;1.57;52.26
63654;BME280;49809;47.418;19.080;2023-04-04T01:20:49;100677.63;;;1.62;51.64
63654;BME280;49809;47.418;19.080;2023-04-04T01:24:21;100668.16;;;1.61;52.22
63654;BME280;49809;47.418;19.080;2023-04-04T01:27:29;100667.72;;;1.58;52.05
63654;BME280;49809;47.418;19.080;2023-04-04T01:30:36;100666.09;;;1.57;51.61
63654;BME280;49809;47.418;19.080;2023-04-04T01:33:45;100649.84;;;1.55;51.92
63654;BME280;49809;47.418;19.080;2023-04-04T01:37:24;100643.25;;;1.59;52.29
63654;BME280;49809;47.418;19.080;2023-04-04T01:40:34;100645.16;;;1.50;52.69
63654;BME280;49809;47.418;19.080;2023-04-04T01:44:08;100638.34;;;1.49;53.00
63654;BME280;49809;47.418;19.080;2023-04-04T01:47:17;100637.16;;;1.52;52.64
63654;BME280;49809;47.418;19.080;2023-04-04T01:50:24;100629.72;;;1.49;53.05
63654;BME280;49809;47.418;19.080;2023-04-04T01:53:29;100623.50;;;1.50;52.67
63654;BME280;49809;47.418;19.080;2023-04-04T01:56:53;100625.09;;;1.51;53.05
63654;BME280;49809;47.418;19.080;2023-04-04T02:00:07;100614.06;;;1.49;52.99
63654;BME280;49809;47.418;19.080;2023-04-04T02:03:16;100610.81;;;1.47;53.24
63654;BME280;49809;47.418;19.080;2023-04-04T02:06:20;100607.88;;;1.35;54.14
63654;BME280;49809;47.418;19.080;2023-04-04T02:09:26;100603.34;;;1.44;54.07
63654;BME280;49809;47.418;19.080;2023-04-04T02:12:31;100592.84;;;1.37;54.20
63654;BME280;49809;47.418;19.080;2023-04-04T02:15:41;100595.63;;;1.36;54.38
63654;BME280;49809;47.418;19.080;2023-04-04T02:18:47;100591.69;;;1.40;54.05
63654;BME280;49809;47.418;19.080;2023-04-04T02:21:50;100594.47;;;1.38;54.08
63654;BME280;49809;47.418;19.080;2023-04-04T02:25:16;100585.66;;;1.39;53.93
63654;BME280;49809;47.418;19.080;2023-04-04T02:28:24;100588.25;;;1.39;54.34
63654;BME280;49809;47.418;19.080;2023-04-04T02:32:27;100570.00;;;1.39;54.78
63654;BME280;49809;47.418;19.080;2023-04-04T02:36:13;100561.50;;;1.30;54.75
63654;BME280;49809;47.418;19.080;2023-04-04T02:39:41;100573.34;;;1.33;54.72
63654;BME280;49809;47.418;19.080;2023-04-04T02:42:46;100576.75;;;1.34;54.78
63654;BME280;49809;47.418;19.080;2023-04-04T02:46:12;100576.59;;;1.35;54.99
63654;BME280;49809;47.418;19.080;2023-04-04T02:49:30;100577.06;;;1.24;55.46
63654;BME280;49809;47.418;19.080;2023-04-04T02:53:00;100588.31;;;1.24;56.29
63654;BME280;49809;47.418;19.080;2023-04-04T02:56:10;100584.38;;;1.14;56.54
63654;BME280;49809;47.418;19.080;2023-04-04T02:59:17;100591.00;;;1.16;56.41
63654;BME280;49809;47.418;19.080;2023-04-04T03:02:26;100599.47;;;1.18;56.18
63654;BME280;49809;47.418;19.080;2023-04-04T03:05:33;100597.84;;;1.17;56.82
63654;BME280;49809;47.418;19.080;2023-04-04T03:08:40;100596.22;;;1.16;56.53
63654;BME280;49809;47.418;19.080;2023-04-04T03:11:45;100602.31;;;1.23;55.88
63654;BME280;49809;47.418;19.080;2023-04-04T03:15:09;100604.28;;;1.21;56.21
63654;BME280;49809;47.418;19.080;2023-04-04T03:18:13;100614.72;;;1.21;56.33
63654;BME280;49809;47.418;19.080;2023-04-04T03:21:18;100607.66;;;1.15;56.21
63654;BME280;49809;47.418;19.080;2023-04-04T03:24:24;100612.50;;;1.18;56.07
63654;BME280;49809;47.418;19.080;2023-04-04T03:27:30;100612.22;;;1.13;56.45
63654;BME280;49809;47.418;19.080;2023-04-04T03:30:37;100605.75;;;1.09;56.79
63654;BME280;49809;47.418;19.080;2023-04-04T03:33:41;100615.00;;;1.12;56.10
63654;BME280;49809;47.418;19.080;2023-04-04T03:36:47;100614.56;;;1.08;57.01
63654;BME280;49809;47.418;19.080;2023-04-04T03:39:51;100622.78;;;1.05;57.27
63654;BME280;49809;47.418;19.080;2023-04-04T03:43:15;100618.91;;;1.01;57.40
63654;BME280;49809;47.418;19.080;2023-04-04T03:46:21;100624.91;;;1.02;57.43
63654;BME280;49809;47.418;19.080;2023-04-04T03:49:35;100623.75;;;1.04;57.38
63654;BME280;49809;47.418;19.080;2023-04-04T03:53:02;100618.91;;;1.01;58.00
63654;BME280;49809;47.418;19.080;2023-04-04T03:56:19;100623.31;;;1.01;57.66
63654;BME280;49809;47.418;19.080;2023-04-04T03:59:24;100617.56;;;1.05;57.50
63654;BME280;49809;47.418;19.080;2023-04-04T04:02:28;100612.78;;;0.94;57.14
63654;BME280;49809;47.418;19.080;2023-04-04T04:05:32;100610.81;;;0.96;57.36
63654;BME280;49809;47.418;19.080;2023-04-04T04:08:37;100614.03;;;0.98;57.38
63654;BME280;49809;47.418;19.080;2023-04-04T04:11:44;100606.66;;;1.02;57.32
63654;BME280;49809;47.418;19.080;2023-04-04T04:14:51;100599.50;;;0.89;57.94
63654;BME280;49809;47.418;19.080;2023-04-04T04:17:55;100598.12;;;0.93;58.05
63654;BME280;49809;47.418;19.080;2023-04-04T04:21:00;100596.78;;;0.97;57.25
63654;BME280;49809;47.418;19.080;2023-04-04T04:24:06;100595.78;;;0.98;58.08
63654;BME280;49809;47.418;19.080;2023-04-04T04:27:29;100597.50;;;1.06;57.30
63654;BME280;49809;47.418;19.080;2023-04-04T04:30:38;100591.22;;;1.00;57.63
63654;BME280;49809;47.418;19.080;2023-04-04T04:33:45;100597.97;;;0.95;57.84
63654;BME280;49809;47.418;19.080;2023-04-04T04:36:52;100590.31;;;0.93;57.66
63654;BME280;49809;47.418;19.080;2023-04-04T04:39:58;100598.84;;;1.02;57.33
63654;BME280;49809;47.418;19.080;2023-04-04T04:43:05;100596.59;;;0.99;57.66
63654;BME280;49809;47.418;19.080;2023-04-04T04:46:29;100595.19;;;0.96;57.84
63654;BME280;49809;47.418;19.080;2023-04-04T04:49:38;100590.66;;;1.05;57.41
63654;BME280;49809;47.418;19.080;2023-04-04T04:52:43;100592.19;;;1.14;57.69
63654;BME280;49809;47.418;19.080;2023-04-04T04:55:48;100595.50;;;1.22;56.39
63654;BME280;49809;47.418;19.080;2023-04-04T04:58:54;100595.91;;;1.26;56.70
63654;BME280;49809;47.418;19.080;2023-04-04T05:02:00;100592.87;;;1.22;56.60
63654;BME280;49809;47.418;19.080;2023-04-04T05:05:26;100594.38;;;1.31;56.27
63654;BME280;49809;47.418;19.080;2023-04-04T05:08:55;100593.22;;;1.34;56.11
63654;BME280;49809;47.418;19.080;2023-04-04T05:12:20;100592.28;;;1.42;55.62
63654;BME280;49809;47.418;19.080;2023-04-04T05:15:24;100591.59;;;1.33;55.51
63654;BME280;49809;47.418;19.080;2023-04-04T05:18:28;100595.28;;;1.39;55.34
63654;BME280;49809;47.418;19.080;2023-04-04T05:21:33;100599.00;;;1.51;54.89
63654;BME280;49809;47.418;19.080;2023-04-04T05:24:47;100603.50;;;1.57;54.56
63654;BME280;49809;47.418;19.080;2023-04-04T05:27:56;100616.28;;;1.52;54.13
63654;BME280;49809;47.418;19.080;2023-04-04T05:31:05;100608.19;;;1.47;54.64
63654;BME280;49809;47.418;19.080;2023-04-04T05:34:11;100614.19;;;1.62;53.96
63654;BME280;49809;47.418;19.080;2023-04-04T05:37:15;100613.03;;;1.64;53.24
63654;BME280;49809;47.418;19.080;2023-04-04T05:40:21;100617.31;;;1.72;52.67
63654;BME280;49809;47.418;19.080;2023-04-04T05:43:28;100610.47;;;1.71;52.84
63654;BME280;49809;47.418;19.080;2023-04-04T05:46:55;100610.28;;;1.72;53.75
63654;BME280;49809;47.418;19.080;2023-04-04T05:50:01;100608.09;;;1.76;52.96
63654;BME280;49809;47.418;19.080;2023-04-04T05:53:10;100611.44;;;1.70;52.20
63654;BME280;49809;47.418;19.080;2023-04-04T05:56:16;100615.44;;;1.87;51.64
63654;BME280;49809;47.418;19.080;2023-04-04T05:59:21;100619.69;;;1.88;51.81
63654;BME280;49809;47.418;19.080;2023-04-04T06:02:25;100618.66;;;1.89;51.88
63654;BME280;49809;47.418;19.080;2023-04-04T06:05:51;100617.78;;;2.03;51.32
63654;BME280;49809;47.418;19.080;2023-04-04T06:08:57;100618.84;;;2.09;51.62
63654;BME280;49809;47.418;19.080;2023-04-04T06:12:04;100623.37;;;2.22;51.22
63654;BME280;49809;47.418;19.080;2023-04-04T06:15:12;100628.59;;;2.22;50.91
63654;BME280;49809;47.418;19.080;2023-04-04T06:18:17;100631.94;;;2.37;50.10
63654;BME280;49809;47.418;19.080;2023-04-04T06:21:23;100642.47;;;2.50;49.46
63654;BME280;49809;47.418;19.080;2023-04-04T06:24:27;100635.12;;;2.60;48.26
63654;BME280;49809;47.418;19.080;2023-04-04T06:27:41;100614.88;;;2.41;50.01
63654;BME280;49809;47.418;19.080;2023-04-04T06:30:50;100590.47;;;2.55;48.85
63654;BME280;49809;47.418;19.080;2023-04-04T06:34:15;100581.38;;;2.51;49.70
63654;BME280;49809;47.418;19.080;2023-04-04T06:37:24;100591.56;;;2.74;49.36
63654;BME280;49809;47.418;19.080;2023-04-04T06:40:49;100583.91;;;2.72;49.71
63654;BME280;49809;47.418;19.080;2023-04-04T06:43:53;100583.69;;;2.67;49.45
63654;BME280;49809;47.418;19.080;2023-04-04T06:46:58;100566.66;;;2.78;49.23
63654;BME280;49809;47.418;19.080;2023-04-04T06:54:07;100588.16;;;2.73;48.67
63654;BME280;49809;47.418;19.080;2023-04-04T06:57:13;100572.97;;;2.96;48.27
63654;BME280;49809;47.418;19.080;2023-04-04T07:00:17;100572.59;;;2.99;48.66
63654;BME280;49809;47.418;19.080;2023-04-04T07:03:33;100570.03;;;3.13;47.75
63654;BME280;49809;47.418;19.080;2023-04-04T07:06:36;100585.78;;;3.32;48.35
63654;BME280;49809;47.418;19.080;2023-04-04T07:09:41;100593.25;;;3.42;47.15
63654;BME280;49809;47.418;19.080;2023-04-04T07:13:19;100591.47;;;3.49;47.62
63654;BME280;49809;47.418;19.080;2023-04-04T07:16:26;100594.34;;;3.67;46.50
63654;BME280;49809;47.418;19.080;2023-04-04T07:19:34;100598.75;;;3.73;46.73
63654;BME280;49809;47.418;19.080;2023-04-04T07:22:38;100597.59;;;3.82;46.34
63654;BME280;49809;47.418;19.080;2023-04-04T07:26:08;100584.28;;;4.17;45.94
63654;BME280;49809;47.418;19.080;2023-04-04T07:29:12;100598.81;;;4.19;46.11
63654;BME280;49809;47.418;19.080;2023-04-04T07:32:20;100610.88;;;4.47;45.33
63654;BME280;49809;47.418;19.080;2023-04-04T07:39:32;100614.78;;;5.02;43.43
63654;BME280;49809;47.418;19.080;2023-04-04T07:42:58;100606.31;;;5.44;43.87
63654;BME280;49809;47.418;19.080;2023-04-04T07:46:08;100605.22;;;5.27;43.90
63654;BME280;49809;47.418;19.080;2023-04-04T07:49:48;100605.31;;;5.45;42.17
63654;BME280;49809;47.418;19.080;2023-04-04T07:52:54;100605.31;;;5.45;42.34
63654;BME280;49809;47.418;19.080;2023-04-04T07:56:01;100606.75;;;5.41;42.62
63654;BME280;49809;47.418;19.080;2023-04-04T07:59:17;100622.50;;;5.41;42.02
63654;BME280;49809;47.418;19.080;2023-04-04T08:02:22;100619.87;;;5.41;42.33
63654;BME280;49809;47.418;19.080;2023-04-04T08:05:27;100616.97;;;5.56;41.89
63654;BME280;49809;47.418;19.080;2023-04-04T08:08:35;100610.09;;;5.61;41.51
63654;BME280;49809;47.418;19.080;2023-04-04T08:11:43;100601.50;;;5.73;41.07
63654;BME280;49809;47.418;19.080;2023-04-04T08:14:52;100612.47;;;6.26;40.57
63654;BME280;49809;47.418;19.080;2023-04-04T08:18:12;100615.41;;;6.36;40.71
63654;BME280;49809;47.418;19.080;2023-04-04T08:21:21;100624.56;;;6.33;40.42
63654;BME280;49809;47.418;19.080;2023-04-04T08:24:29;100617.88;;;6.55;39.35
63654;BME280;49809;47.418;19.080;2023-04-04T08:27:46;100608.84;;;6.70;38.91
63654;BME280;49809;47.418;19.080;2023-04-04T08:31:10;100609.44;;;6.90;38.76
63654;BME280;49809;47.418;19.080;2023-04-04T08:34:47;100617.81;;;6.62;39.26
63654;BME280;49809;47.418;19.080;2023-04-04T08:38:19;100610.13;;;6.61;39.74
63654;BME280;49809;47.418;19.080;2023-04-04T08:41:36;100607.94;;;7.12;38.91
63654;BME280;49809;47.418;19.080;2023-04-04T08:45:10;100604.75;;;7.58;37.46
63654;BME280;49809;47.418;19.080;2023-04-04T08:48:45;100599.03;;;7.13;37.36
63654;BME280;49809;47.418;19.080;2023-04-04T08:52:07;100599.34;;;7.05;38.23
63654;BME280;49809;47.418;19.080;2023-04-04T08:55:59;100589.53;;;7.12;38.01
63654;BME280;49809;47.418;19.080;2023-04-04T08:59:16;100573.06;;;7.47;37.54
63654;BME280;49809;47.418;19.080;2023-04-04T09:02:54;100582.94;;;7.21;38.27
63654;BME280;49809;47.418;19.080;2023-04-04T09:06:27;100590.97;;;7.26;38.38
63654;BME280;49809;47.418;19.080;2023-04-04T09:09:48;100584.41;;;7.17;38.30
63654;BME280;49809;47.418;19.080;2023-04-04T09:13:18;100580.81;;;7.12;38.92
63654;BME280;49809;47.418;19.080;2023-04-04T09:16:45;100576.88;;;7.51;38.52
63654;BME280;49809;47.418;19.080;2023-04-04T09:20:44;100579.06;;;8.18;37.20
63654;BME280;49809;47.418;19.080;2023-04-04T09:24:03;100568.84;;;7.87;36.63
63654;BME280;49809;47.418;19.080;2023-04-04T09:27:33;100574.06;;;8.52;36.33
63654;BME280;49809;47.418;19.080;2023-04-04T09:30:51;100566.75;;;8.42;35.63
63654;BME280;49809;47.418;19.080;2023-04-04T09:34:12;100564.25;;;7.94;37.44
63654;BME280;49809;47.418;19.080;2023-04-04T09:37:41;100569.22;;;8.02;37.07
63654;BME280;49809;47.418;19.080;2023-04-04T09:41:17;100558.53;;;7.97;36.92
63654;BME280;49809;47.418;19.080;2023-04-04T09:44:53;100560.31;;;8.61;35.92
63654;BME280;49809;47.418;19.080;2023-04-04T09:48:30;100562.91;;;8.73;35.21
63654;BME280;49809;47.418;19.080;2023-04-04T09:52:03;100547.41;;;8.77;35.96
63654;BME280;49809;47.418;19.080;2023-04-04T09:55:39;100555.50;;;8.98;34.70
63654;BME280;49809;47.418;19.080;2023-04-04T09:59:12;100559.50;;;8.61;35.97
63654;BME280;49809;47.418;19.080;2023-04-04T10:02:32;100563.25;;;9.16;34.52
63654;BME280;49809;47.418;19.080;2023-04-04T10:05:58;100553.91;;;8.97;35.08
63654;BME280;49809;47.418;19.080;2023-04-04T10:09:27;100553.81;;;9.21;34.29
63654;BME280;49809;47.418;19.080;2023-04-04T10:13:04;100553.78;;;9.49;34.87
63654;BME280;49809;47.418;19.080;2023-04-04T10:16:32;100550.62;;;9.19;34.87
63654;BME280;49809;47.418;19.080;2023-04-04T10:20:13;100540.50;;;9.15;33.79
63654;BME280;49809;47.418;19.080;2023-04-04T10:23:54;100537.59;;;9.00;34.88
63654;BME280;49809;47.418;19.080;2023-04-04T10:27:12;100530.62;;;9.23;33.59
63654;BME280;49809;47.418;19.080;2023-04-04T10:30:42;100525.56;;;9.21;34.68
63654;BME280;49809;47.418;19.080;2023-04-04T10:34:25;100535.09;;;8.94;34.33
63654;BME280;49809;47.418;19.080;2023-04-04T10:37:59;100533.56;;;9.09;33.86
63654;BME280;49809;47.418;19.080;2023-04-04T10:41:18;100533.34;;;9.28;33.46
63654;BME280;49809;47.418;19.080;2023-04-04T10:44:46;100531.31;;;8.90;34.21
63654;BME280;49809;47.418;19.080;2023-04-04T10:48:25;100529.00;;;10.00;33.42
63654;BME280;49809;47.418;19.080;2023-04-04T10:51:50;100530.06;;;9.82;33.04
63654;BME280;49809;47.418;19.080;2023-04-04T10:55:26;100538.41;;;10.46;31.91
63654;BME280;49809;47.418;19.080;2023-04-04T10:59:13;100532.09;;;10.47;30.90
63654;BME280;49809;47.418;19.080;2023-04-04T11:10:37;100515.78;;;10.77;30.99
63654;BME280;49809;47.418;19.080;2023-04-04T11:14:02;100523.94;;;11.46;28.63
63654;BME280;49809;47.418;19.080;2023-04-04T11:21:24;100523.34;;;11.65;30.10
63654;BME280;49809;47.418;19.080;2023-04-04T11:28:47;100508.50;;;11.69;29.53
63654;BME280;49809;47.418;19.080;2023-04-04T11:32:47;100506.41;;;12.55;28.62
63654;BME280;49809;47.418;19.080;2023-04-04T11:36:23;100511.94;;;11.38;29.23
63654;BME280;49809;47.418;19.080;2023-04-04T11:40:10;100500.66;;;12.22;28.55
63654;BME280;49809;47.418;19.080;2023-04-04T11:43:32;100500.06;;;13.59;27.50
63654;BME280;49809;47.418;19.080;2023-04-04T11:47:18;100487.56;;;13.34;27.03
63654;BME280;49809;47.418;19.080;2023-04-04T11:50:40;100481.59;;;14.28;26.52
63654;BME280;49809;47.418;19.080;2023-04-04T11:54:05;100481.91;;;14.12;26.96
63654;BME280;49809;47.418;19.080;2023-04-04T11:57:50;100481.41;;;13.24;26.11
63654;BME280;49809;47.418;19.080;2023-04-04T12:01:25;100475.06;;;12.47;28.83
63654;BME280;49809;47.418;19.080;2023-04-04T12:04:59;100471.03;;;12.40;28.11
63654;BME280;49809;47.418;19.080;2023-04-04T12:08:47;100466.19;;;12.27;28.79
63654;BME280;49809;47.418;19.080;2023-04-04T12:12:02;100467.97;;;12.11;28.59
63654;BME280;49809;47.418;19.080;2023-04-04T12:15:30;100469.00;;;12.05;27.99
63654;BME280;49809;47.418;19.080;2023-04-04T12:18:49;100464.19;;;12.02;29.01
63654;BME280;49809;47.418;19.080;2023-04-04T12:22:19;100441.91;;;12.55;27.42
63654;BME280;49809;47.418;19.080;2023-04-04T12:25:37;100450.47;;;12.10;27.92
63654;BME280;49809;47.418;19.080;2023-04-04T12:29:11;100444.06;;;12.06;29.23
63654;BME280;49809;47.418;19.080;2023-04-04T12:32:43;100448.84;;;12.04;28.44
63654;BME280;49809;47.418;19.080;2023-04-04T12:36:12;100446.31;;;12.29;28.87
63654;BME280;49809;47.418;19.080;2023-04-04T12:39:32;100438.31;;;11.45;29.89
63654;BME280;49809;47.418;19.080;2023-04-04T12:43:00;100426.25;;;12.01;28.81
63654;BME280;49809;47.418;19.080;2023-04-04T12:46:16;100443.09;;;11.48;29.05
63654;BME280;49809;47.418;19.080;2023-04-04T12:50:00;100430.97;;;11.57;29.68
63654;BME280;49809;47.418;19.080;2023-04-04T12:53:49;100430.53;;;11.33;29.96
63654;BME280;49809;47.418;19.080;2023-04-04T12:57:25;100429.06;;;11.16;29.82
63654;BME280;49809;47.418;19.080;2023-04-04T13:00:49;100424.31;;;11.18;30.28
63654;BME280;49809;47.418;19.080;2023-04-04T13:04:10;100422.06;;;11.05;29.95
63654;BME280;49809;47.418;19.080;2023-04-04T13:07:48;100424.03;;;11.46;30.43
63654;BME280;49809;47.418;19.080;2023-04-04T13:11:22;100424.38;;;11.28;29.50
63654;BME280;49809;47.418;19.080;2023-04-04T13:15:02;100417.66;;;10.83;29.69
63654;BME280;49809;47.418;19.080;2023-04-04T13:18:46;100420.88;;;10.90;31.04
63654;BME280;49809;47.418;19.080;2023-04-04T13:22:35;100416.06;;;11.14;30.18
63654;BME280;49809;47.418;19.080;2023-04-04T13:26:09;100405.16;;;11.43;31.08
63654;BME280;49809;47.418;19.080;2023-04-04T13:29:37;100411.53;;;11.42;30.13
63654;BME280;49809;47.418;19.080;2023-04-04T13:33:08;100406.69;;;11.02;30.24
63654;BME280;49809;47.418;19.080;2023-04-04T13:36:37;100397.03;;;11.17;29.46
63654;BME280;49809;47.418;19.080;2023-04-04T13:40:11;100393.59;;;10.90;30.14
63654;BME280;49809;47.418;19.080;2023-04-04T13:43:48;100394.41;;;10.90;31.04
63654;BME280;49809;47.418;19.080;2023-04-04T13:47:27;100395.16;;;10.86;30.20
63654;BME280;49809;47.418;19.080;2023-04-04T13:50:47;100400.28;;;10.71;31.31
63654;BME280;49809;47.418;19.080;2023-04-04T13:54:24;100402.06;;;11.19;31.83
63654;BME280;49809;47.418;19.080;2023-04-04T13:57:42;100398.03;;;11.11;29.73
63654;BME280;49809;47.418;19.080;2023-04-04T14:01:02;100404.03;;;11.02;29.85
63654;BME280;49809;47.418;19.080;2023-04-04T14:04:25;100404.13;;;11.12;30.19
63654;BME280;49809;47.418;19.080;2023-04-04T14:07:42;100399.59;;;11.07;30.46
63654;BME280;49809;47.418;19.080;2023-04-04T14:11:18;100409.19;;;11.13;29.51
63654;BME280;49809;47.418;19.080;2023-04-04T14:14:54;100396.28;;;10.95;29.97
63654;BME280;49809;47.418;19.080;2023-04-04T14:18:21;100398.88;;;10.90;30.35
63654;BME280;49809;47.418;19.080;2023-04-04T14:21:50;100383.22;;;10.83;28.99
63654;BME280;49809;47.418;19.080;2023-04-04T14:25:11;100393.78;;;10.57;30.04
63654;BME280;49809;47.418;19.080;2023-04-04T14:28:28;100400.50;;;10.42;31.45
63654;BME280;49809;47.418;19.080;2023-04-04T14:32:02;100398.78;;;10.53;31.24
63654;BME280;49809;47.418;19.080;2023-04-04T14:35:32;100399.44;;;10.65;28.81
63654;BME280;49809;47.418;19.080;2023-04-04T14:38:49;100387.66;;;10.78;28.61
63654;BME280;49809;47.418;19.080;2023-04-04T14:42:17;100396.59;;;10.72;29.60
63654;BME280;49809;47.418;19.080;2023-04-04T14:45:43;100414.78;;;10.90;30.38
63654;BME280;49809;47.418;19.080;2023-04-04T14:49:17;100407.88;;;10.62;30.05
63654;BME280;49809;47.418;19.080;2023-04-04T14:52:35;100404.13;;;10.36;30.51
63654;BME280;49809;47.418;19.080;2023-04-04T14:56:11;100409.75;;;10.40;30.82
63654;BME280;49809;47.418;19.080;2023-04-04T14:59:35;100401.06;;;10.44;29.79
63654;BME280;49809;47.418;19.080;2023-04-04T15:02:55;100404.88;;;9.93;30.74
63654;BME280;49809;47.418;19.080;2023-04-04T15:06:36;100400.44;;;9.77;31.11
63654;BME280;49809;47.418;19.080;2023-04-04T15:10:13;100411.34;;;9.64;31.11
63654;BME280;49809;47.418;19.080;2023-04-04T15:13:56;100411.53;;;9.57;31.48
63654;BME280;49809;47.418;19.080;2023-04-04T15:17:14;100409.19;;;9.61;31.33
63654;BME280;49809;47.418;19.080;2023-04-04T15:20:46;100410.22;;;9.60;31.26
63654;BME280;49809;47.418;19.080;2023-04-04T15:24:07;100413.28;;;9.19;31.35
63654;BME280;49809;47.418;19.080;2023-04-04T15:28:00;100408.06;;;8.90;32.31
63654;BME280;49809;47.418;19.080;2023-04-04T15:31:19;100411.81;;;9.11;31.90
63654;BME280;49809;47.418;19.080;2023-04-04T15:34:51;100420.94;;;9.20;31.99
63654;BME280;49809;47.418;19.080;2023-04-04T15:38:32;100420.00;;;9.09;32.10
63654;BME280;49809;47.418;19.080;2023-04-04T15:42:16;100422.12;;;8.96;32.13
63654;BME280;49809;47.418;19.080;2023-04-04T15:45:40;100425.56;;;8.96;33.13
63654;BME280;49809;47.418;19.080;2023-04-04T15:49:07;100422.56;;;9.04;33.61
63654;BME280;49809;47.418;19.080;2023-04-04T15:52:44;100427.66;;;8.94;33.11
63654;BME280;49809;47.418;19.080;2023-04-04T15:56:30;100441.22;;;8.86;33.59
63654;BME280;49809;47.418;19.080;2023-04-04T15:59:49;100435.56;;;8.66;34.00
63654;BME280;49809;47.418;19.080;2023-04-04T16:03:15;100433.78;;;8.55;33.66
63654;BME280;49809;47.418;19.080;2023-04-04T16:06:54;100446.06;;;8.49;34.92
63654;BME280;49809;47.418;19.080;2023-04-04T16:10:28;100442.50;;;8.44;34.53
63654;BME280;49809;47.418;19.080;2023-04-04T16:13:57;100458.59;;;8.31;35.80
63654;BME280;49809;47.418;19.080;2023-04-04T16:17:43;100466.63;;;8.12;36.01
63654;BME280;49809;47.418;19.080;2023-04-04T16:21:23;100467.56;;;7.83;35.98
63654;BME280;49809;47.418;19.080;2023-04-04T16:24:40;100473.81;;;7.70;36.45
63654;BME280;49809;47.418;19.080;2023-04-04T16:27:59;100483.53;;;7.47;36.81
63654;BME280;49809;47.418;19.080;2023-04-04T16:31:36;100475.69;;;7.28;36.80
63654;BME280;49809;47.418;19.080;2023-04-04T16:34:54;100483.12;;;7.20;37.10
63654;BME280;49809;47.418;19.080;2023-04-04T16:38:25;100492.91;;;7.01;37.79
63654;BME280;49809;47.418;19.080;2023-04-04T16:41:42;100483.94;;;6.90;38.45
63654;BME280;49809;47.418;19.080;2023-04-04T16:45:19;100491.22;;;6.88;38.05
63654;BME280;49809;47.418;19.080;2023-04-04T16:48:55;100503.97;;;6.73;37.87
63654;BME280;49809;47.418;19.080;2023-04-04T16:51:59;100507.87;;;6.52;37.66
63654;BME280;49809;47.418;19.080;2023-04-04T16:55:07;100514.00;;;6.46;38.11
63654;BME280;49809;47.418;19.080;2023-04-04T16:58:33;100518.94;;;6.36;38.46
63654;BME280;49809;47.418;19.080;2023-04-04T17:02:06;100525.06;;;6.30;39.03
63654;BME280;49809;47.418;19.080;2023-04-04T17:05:35;100528.19;;;6.21;38.79
63654;BME280;49809;47.418;19.080;2023-04-04T17:08:58;100532.94;;;6.12;40.75
63654;BME280;49809;47.418;19.080;2023-04-04T17:12:38;100532.22;;;6.05;39.99
63654;BME280;49809;47.418;19.080;2023-04-04T17:16:02;100531.44;;;5.98;39.48
63654;BME280;49809;47.418;19.080;2023-04-04T17:19:29;100541.00;;;5.92;39.34
63654;BME280;49809;47.418;19.080;2023-04-04T17:23:07;100550.13;;;5.90;38.90
63654;BME280;49809;47.418;19.080;2023-04-04T17:26:52;100550.94;;;5.84;39.50
63654;BME280;49809;47.418;19.080;2023-04-04T17:29:56;100546.13;;;5.81;39.42
63654;BME280;49809;47.418;19.080;2023-04-04T17:33:01;100551.78;;;5.78;39.02
63654;BME280;49809;47.418;19.080;2023-04-04T17:36:04;100560.34;;;5.66;38.73
63654;BME280;49809;47.418;19.080;2023-04-04T17:39:12;100557.12;;;5.64;38.71
63654;BME280;49809;47.418;19.080;2023-04-04T17:42:17;100565.22;;;5.63;39.21
63654;BME280;49809;47.418;19.080;2023-04-04T17:48:58;100577.81;;;5.54;38.92
63654;BME280;49809;47.418;19.080;2023-04-04T17:52:01;100582.25;;;5.54;39.27